createdAt,value
2023-02-11T00:00:41.913Z,41.25
2023-02-11T00:03:08.903Z,41.03
2023-02-11T00:05:35.406Z,42.63
2023-02-11T00:08:01.802Z,42.08
2023-02-11T00:10:28.254Z,41.63
2023-02-11T00:12:54.694Z,43.63
2023-02-11T00:15:21.450Z,40.35
2023-02-11T00:17:47.876Z,42.47
2023-02-11T00:20:14.663Z,43.55
2023-02-11T00:22:41.118Z,43.70
2023-02-11T00:25:07.708Z,43.05
2023-02-11T00:27:34.527Z,43.67
2023-02-11T00:30:02.170Z,44.55
2023-02-11T00:32:30.432Z,42.40
2023-02-11T00:34:56.891Z,44.40
2023-02-11T00:37:23.327Z,41.83
2023-02-11T00:39:50.143Z,43.03
2023-02-11T00:42:16.799Z,45.60
2023-02-11T00:44:44.842Z,43.17
2023-02-11T00:47:11.311Z,42.72
2023-02-11T00:49:40.193Z,44.53
2023-02-11T00:52:06.899Z,44.05
2023-02-11T00:54:34.351Z,43.55
2023-02-11T00:57:00.805Z,42.35
2023-02-11T00:59:27.370Z,45.03
2023-02-11T01:01:53.977Z,42.75
2023-02-11T01:04:20.480Z,43.42
2023-02-11T01:06:47.108Z,43.03
2023-02-11T01:09:13.535Z,41.65
2023-02-11T01:11:40.084Z,43.20
2023-02-11T01:14:06.491Z,44.80
2023-02-11T01:16:32.986Z,42.80
2023-02-11T01:18:59.579Z,43.03
2023-02-11T01:21:26.177Z,42.13
2023-02-11T01:23:52.984Z,41.28
2023-02-11T01:26:19.700Z,41.85
2023-02-11T01:28:46.491Z,42.53
2023-02-11T01:31:13.054Z,44.53
2023-02-11T01:33:40.301Z,43.13
2023-02-11T01:36:08.015Z,42.17
2023-02-11T01:38:34.966Z,42.00
2023-02-11T01:41:05.140Z,43.60
2023-02-11T01:43:41.409Z,43.00
2023-02-11T01:46:31.220Z,42.00
2023-02-11T01:49:06.770Z,42.22
2023-02-11T01:51:40.100Z,40.00
2023-02-11T01:54:27.663Z,42.28
2023-02-11T01:57:15.194Z,41.95
2023-02-11T01:59:57.731Z,42.72
2023-02-11T02:02:30.649Z,42.28
2023-02-11T02:05:14.751Z,42.72
2023-02-11T02:07:58.908Z,41.83
2023-02-11T02:10:28.404Z,43.65
2023-02-11T02:12:55.173Z,41.35
2023-02-11T02:15:38.413Z,40.60
2023-02-11T02:18:13.900Z,41.25
2023-02-11T02:21:11.217Z,40.42
2023-02-11T02:23:54.180Z,40.40
2023-02-11T02:26:37.618Z,39.22
2023-02-11T02:29:31.070Z,36.93
2023-02-11T02:32:31.339Z,39.95
2023-02-11T02:35:06.915Z,39.53
2023-02-11T02:37:54.976Z,39.15
2023-02-11T02:40:28.902Z,40.47
2023-02-11T02:42:56.721Z,38.75
2023-02-11T02:45:23.156Z,41.22
2023-02-11T02:47:49.568Z,40.50
2023-02-11T02:50:20.780Z,40.53
2023-02-11T02:53:04.573Z,41.63
2023-02-11T02:56:00.718Z,43.85
2023-02-11T02:58:30.051Z,41.00
2023-02-11T03:01:34.229Z,42.72
2023-02-11T03:04:25.142Z,43.15
2023-02-11T03:06:57.682Z,41.65
2023-02-11T03:09:34.852Z,41.85
2023-02-11T03:12:03.595Z,38.80
2023-02-11T03:14:32.088Z,38.85
2023-02-11T03:17:01.678Z,39.35
2023-02-11T03:19:37.590Z,39.60
2023-02-11T03:22:08.045Z,40.28
2023-02-11T03:24:38.522Z,40.10
2023-02-11T03:27:20.265Z,41.80
2023-02-11T03:30:01.196Z,40.22
2023-02-11T03:32:36.916Z,41.42
2023-02-11T03:35:14.165Z,43.33
2023-02-11T03:37:49.352Z,40.63
2023-02-11T03:40:21.325Z,40.95
2023-02-11T03:42:54.589Z,39.40
2023-02-11T03:45:23.887Z,39.53
2023-02-11T03:48:29.778Z,38.15
2023-02-11T03:50:59.465Z,38.67
2023-02-11T03:53:25.881Z,39.38
2023-02-11T03:55:54.754Z,39.50
2023-02-11T03:58:21.245Z,37.42
2023-02-11T04:00:48.242Z,39.72
2023-02-11T04:03:14.732Z,39.22
2023-02-11T04:05:41.215Z,38.35
2023-02-11T04:08:07.979Z,36.03
2023-02-11T04:10:34.446Z,37.55
2023-02-11T04:13:01.165Z,36.63
2023-02-11T04:15:27.683Z,37.97
2023-02-11T04:17:54.122Z,35.95
2023-02-11T04:20:20.718Z,36.78
2023-02-11T04:22:47.171Z,37.03
2023-02-11T04:25:13.869Z,37.00
2023-02-11T04:27:40.346Z,35.20
2023-02-11T04:30:07.949Z,37.10
2023-02-11T04:32:34.365Z,35.55
2023-02-11T04:35:00.869Z,35.15
2023-02-11T04:37:27.368Z,33.90
2023-02-11T04:39:53.808Z,35.17
2023-02-11T04:42:20.244Z,34.60
2023-02-11T04:44:46.865Z,34.63
2023-02-11T04:47:15.347Z,35.05
2023-02-11T04:49:42.279Z,34.00
2023-02-11T04:52:09.138Z,33.83
2023-02-11T04:54:35.651Z,33.85
2023-02-11T04:57:02.220Z,35.20
2023-02-11T04:59:29.103Z,34.25
2023-02-11T05:01:55.837Z,33.38
2023-02-11T05:04:22.402Z,33.15
2023-02-11T05:06:48.853Z,32.83
2023-02-11T05:09:15.656Z,33.28
2023-02-11T05:11:42.745Z,35.25
2023-02-11T05:14:09.176Z,31.83
2023-02-11T05:16:35.706Z,33.85
2023-02-11T05:19:02.225Z,33.15
2023-02-11T05:21:28.674Z,31.58
2023-02-11T05:23:55.128Z,32.13
2023-02-11T05:26:21.540Z,31.80
2023-02-11T05:28:48.186Z,32.50
2023-02-11T05:31:15.053Z,31.63
2023-02-11T05:33:41.980Z,32.13
2023-02-11T05:36:11.249Z,30.52
2023-02-11T05:38:38.445Z,29.83
2023-02-11T05:41:06.213Z,31.35
2023-02-11T05:43:32.802Z,31.02
2023-02-11T05:45:59.285Z,31.23
2023-02-11T05:48:25.777Z,30.60
2023-02-11T05:50:52.420Z,30.33
2023-02-11T05:53:18.798Z,31.48
2023-02-11T05:55:46.072Z,29.42
2023-02-11T05:58:12.480Z,30.23
2023-02-11T06:00:39.260Z,29.67
2023-02-11T06:03:05.840Z,28.45
2023-02-11T06:05:33.111Z,28.92
2023-02-11T06:07:59.837Z,27.40
2023-02-11T06:10:26.671Z,29.55
2023-02-11T06:12:53.083Z,29.80
2023-02-11T06:15:19.631Z,28.23
2023-02-11T06:17:46.340Z,26.88
2023-02-11T06:20:12.792Z,28.52
2023-02-11T06:22:39.266Z,27.08
2023-02-11T06:25:06.330Z,26.05
2023-02-11T06:27:32.820Z,27.63
2023-02-11T06:29:59.238Z,25.15
2023-02-11T06:32:45.253Z,25.25
2023-02-11T06:35:13.863Z,25.73
2023-02-11T06:37:41.128Z,24.23
2023-02-11T06:40:08.489Z,26.90
2023-02-11T06:42:36.313Z,25.00
2023-02-11T06:45:05.895Z,25.60
2023-02-11T06:47:32.340Z,26.15
2023-02-11T06:49:58.724Z,26.13
2023-02-11T06:52:25.136Z,25.52
2023-02-11T06:54:51.581Z,25.38
2023-02-11T06:57:18.019Z,25.88
2023-02-11T06:59:44.530Z,25.85
2023-02-11T07:02:11.035Z,23.88
2023-02-11T07:04:37.967Z,26.13
2023-02-11T07:07:04.372Z,24.55
2023-02-11T07:09:30.814Z,25.50
2023-02-11T07:11:57.289Z,25.98
2023-02-11T07:14:23.860Z,25.85
2023-02-11T07:16:50.289Z,23.88
2023-02-11T07:19:17.119Z,25.85
2023-02-11T07:21:43.600Z,26.77
2023-02-11T07:24:11.245Z,26.48
2023-02-11T07:26:38.407Z,25.60
2023-02-11T07:29:05.031Z,24.83
2023-02-11T07:31:31.875Z,24.50
2023-02-11T07:34:00.918Z,24.67
2023-02-11T07:36:28.849Z,25.30
2023-02-11T07:38:55.280Z,25.85
2023-02-11T07:41:23.359Z,25.60
2023-02-11T07:43:50.887Z,24.02
2023-02-11T07:46:25.996Z,24.70
2023-02-11T07:48:53.142Z,25.38
2023-02-11T07:51:29.987Z,24.10
2023-02-11T07:54:02.134Z,25.40
2023-02-11T07:56:29.552Z,24.23
2023-02-11T07:58:59.548Z,23.33
2023-02-11T08:01:28.696Z,25.00
2023-02-11T08:03:56.386Z,24.85
2023-02-11T08:06:24.927Z,23.85
2023-02-11T08:08:51.339Z,22.25
2023-02-11T08:11:26.123Z,26.05
2023-02-11T08:13:53.551Z,22.92
2023-02-11T08:16:26.353Z,23.48
2023-02-11T08:18:55.233Z,22.85
2023-02-11T08:21:21.698Z,22.98
2023-02-11T08:23:49.303Z,24.00
2023-02-11T08:26:21.811Z,24.80
2023-02-11T08:28:50.233Z,23.67
2023-02-11T08:31:19.438Z,20.80
2023-02-11T08:33:46.116Z,21.02
2023-02-11T08:36:18.715Z,20.63
2023-02-11T08:38:45.454Z,20.63
2023-02-11T08:41:14.735Z,20.88
2023-02-11T08:43:44.890Z,20.02
2023-02-11T08:46:15.595Z,19.08
2023-02-11T08:48:42.744Z,21.25
2023-02-11T08:51:11.534Z,18.92
2023-02-11T08:53:37.929Z,17.83
2023-02-11T08:56:04.638Z,18.02
2023-02-11T08:58:31.074Z,16.85
2023-02-11T09:00:57.571Z,17.08
2023-02-11T09:03:23.995Z,16.83
2023-02-11T09:05:53.119Z,17.27
2023-02-11T09:08:21.161Z,17.02
2023-02-11T09:10:48.397Z,15.73
2023-02-11T09:13:16.380Z,15.93
2023-02-11T09:15:46.839Z,15.82
2023-02-11T09:18:13.535Z,16.33
2023-02-11T09:20:40.084Z,16.23
2023-02-11T09:23:06.497Z,15.57
2023-02-11T09:25:32.896Z,15.13
2023-02-11T09:27:59.421Z,15.60
2023-02-11T09:30:25.856Z,14.77
2023-02-11T09:32:52.378Z,15.43
2023-02-11T09:35:18.875Z,13.70
2023-02-11T09:37:45.310Z,12.98
2023-02-11T09:40:13.424Z,13.95
2023-02-11T09:42:48.814Z,15.38
2023-02-11T09:45:27.804Z,14.73
2023-02-11T09:47:57.127Z,14.82
2023-02-11T09:50:32.716Z,14.50
2023-02-11T09:53:04.546Z,14.48
2023-02-11T09:55:37.950Z,14.20
2023-02-11T09:58:11.736Z,15.55
2023-02-11T10:00:46.752Z,13.82
2023-02-11T10:03:46.006Z,13.93
2023-02-11T10:06:32.367Z,14.82
2023-02-11T10:09:24.424Z,13.48
2023-02-11T10:12:09.075Z,14.48
2023-02-11T10:14:46.102Z,13.50
2023-02-11T10:17:44.333Z,13.50
2023-02-11T10:20:19.750Z,13.32
2023-02-11T10:22:54.067Z,12.80
2023-02-11T10:25:25.007Z,13.02
2023-02-11T10:27:54.819Z,12.55
2023-02-11T10:30:25.855Z,12.45
2023-02-11T10:32:59.545Z,12.02
2023-02-11T10:35:27.213Z,12.38
2023-02-11T10:37:55.752Z,12.23
2023-02-11T10:40:25.015Z,12.52
2023-02-11T10:42:55.791Z,12.20
2023-02-11T10:45:30.402Z,11.85
2023-02-11T10:47:57.204Z,12.20
2023-02-11T10:50:30.912Z,10.82
2023-02-11T10:53:15.614Z,10.65
2023-02-11T10:55:53.590Z,10.23
2023-02-11T10:58:28.193Z,10.10
2023-02-11T11:00:59.962Z,11.52
2023-02-11T11:03:32.312Z,10.88
2023-02-11T11:06:01.743Z,10.55
2023-02-11T11:08:44.996Z,11.00
2023-02-11T11:11:20.197Z,10.32
2023-02-11T11:13:52.715Z,10.32
2023-02-11T11:16:28.347Z,10.32
2023-02-11T11:19:06.650Z,9.15
2023-02-11T11:21:41.915Z,10.38
2023-02-11T11:24:18.406Z,9.52
2023-02-11T11:26:48.544Z,9.75
2023-02-11T11:29:19.530Z,10.38
2023-02-11T11:31:49.993Z,9.95
2023-02-11T11:34:38.114Z,9.50
2023-02-11T11:37:13.680Z,10.27
2023-02-11T11:39:40.558Z,10.75
2023-02-11T11:42:25.848Z,10.80
2023-02-11T11:44:58.966Z,10.57
2023-02-11T11:47:31.244Z,10.47
2023-02-11T11:50:34.846Z,10.65
2023-02-11T11:53:11.300Z,10.45
2023-02-11T11:55:48.197Z,10.90
2023-02-11T11:58:21.832Z,9.98
2023-02-11T12:01:25.975Z,11.68
2023-02-11T12:04:20.359Z,10.33
2023-02-11T12:06:56.601Z,10.93
2023-02-11T12:09:37.648Z,10.38
2023-02-11T12:12:19.495Z,11.07
2023-02-11T12:15:16.995Z,11.00
2023-02-11T12:18:00.184Z,11.90
2023-02-11T12:20:38.267Z,10.82
2023-02-11T12:23:46.000Z,11.13
2023-02-11T12:26:24.256Z,11.75
2023-02-11T12:29:12.093Z,11.18
2023-02-11T12:32:09.625Z,11.32
2023-02-11T12:34:47.659Z,11.10
2023-02-11T12:37:37.133Z,10.43
2023-02-11T12:40:25.570Z,10.48
2023-02-11T12:43:17.044Z,10.98
2023-02-11T12:46:21.664Z,12.10
2023-02-11T12:49:16.622Z,11.93
2023-02-11T12:52:04.609Z,11.38
2023-02-11T12:54:43.603Z,11.45
2023-02-11T12:57:23.040Z,11.10
2023-02-11T12:59:58.910Z,10.73
2023-02-11T13:02:28.354Z,11.13
2023-02-11T13:04:59.847Z,10.60
2023-02-11T13:07:33.160Z,11.45
2023-02-11T13:10:20.925Z,11.05
2023-02-11T13:13:08.752Z,10.93
2023-02-11T13:15:35.563Z,11.07
2023-02-11T13:18:24.559Z,9.95
2023-02-11T13:21:03.438Z,10.73
2023-02-11T13:24:00.858Z,11.02
2023-02-11T13:27:13.678Z,9.63
2023-02-11T13:30:11.254Z,9.10
2023-02-11T13:32:56.004Z,8.63
2023-02-11T13:35:36.180Z,8.93
2023-02-11T13:38:05.474Z,9.25
2023-02-11T13:40:37.912Z,8.52
2023-02-11T13:43:08.708Z,8.63
2023-02-11T13:45:42.347Z,8.75
2023-02-11T13:48:21.893Z,8.75
2023-02-11T13:50:57.528Z,7.35
2023-02-11T13:53:24.372Z,7.78
2023-02-11T13:56:04.349Z,7.88
2023-02-11T13:58:36.352Z,7.47
2023-02-11T14:01:02.889Z,7.43
2023-02-11T14:03:51.232Z,7.10
2023-02-11T14:06:39.741Z,7.10
2023-02-11T14:09:09.076Z,6.90
2023-02-11T14:11:41.830Z,6.60
2023-02-11T14:14:08.195Z,6.47
2023-02-11T14:16:38.516Z,6.60
2023-02-11T14:19:06.664Z,6.63
2023-02-11T14:21:37.397Z,6.53
2023-02-11T14:24:06.989Z,6.63
2023-02-11T14:27:21.323Z,6.35
2023-02-11T14:29:59.654Z,5.93
2023-02-11T14:32:53.744Z,6.45
2023-02-11T14:35:35.348Z,5.93
2023-02-11T14:38:21.178Z,6.82
2023-02-11T14:41:07.470Z,6.18
2023-02-11T14:43:46.831Z,6.65
2023-02-11T14:46:17.746Z,7.13
2023-02-11T14:48:48.516Z,7.13
2023-02-11T14:51:31.331Z,6.30
2023-02-11T14:54:03.865Z,6.38
2023-02-11T14:56:31.452Z,6.20
2023-02-11T14:58:58.670Z,7.43
2023-02-11T15:01:29.058Z,6.22
2023-02-11T15:03:56.577Z,6.25
2023-02-11T15:06:39.594Z,7.13
2023-02-11T15:09:14.699Z,7.00
2023-02-11T15:11:44.103Z,7.43
2023-02-11T15:14:18.898Z,7.40
2023-02-11T15:16:47.007Z,7.38
2023-02-11T15:19:23.416Z,6.15
2023-02-11T15:21:50.936Z,6.65
2023-02-11T15:24:27.790Z,6.65
2023-02-11T15:27:18.444Z,6.80
2023-02-11T15:29:49.608Z,6.88
2023-02-11T15:32:23.001Z,7.10
2023-02-11T15:34:51.742Z,6.70
2023-02-11T15:37:24.377Z,6.60
2023-02-11T15:39:52.068Z,6.97
2023-02-11T15:42:40.803Z,7.13
2023-02-11T15:45:13.630Z,7.30
2023-02-11T15:47:46.680Z,6.90
2023-02-11T15:50:31.045Z,6.15
2023-02-11T15:55:28.542Z,6.80
2023-02-11T15:57:58.352Z,7.18
2023-02-11T16:00:33.565Z,7.10
2023-02-11T16:03:00.337Z,7.57
2023-02-11T16:05:37.843Z,6.82
2023-02-11T16:08:25.578Z,6.97
2023-02-11T16:10:58.682Z,6.47
2023-02-11T16:13:28.089Z,7.17
2023-02-11T16:16:02.312Z,6.90
2023-02-11T16:18:38.835Z,6.93
2023-02-11T16:21:15.817Z,6.60
2023-02-11T16:23:43.562Z,6.72
2023-02-11T16:26:20.946Z,6.45
2023-02-11T16:28:51.061Z,5.78
2023-02-11T16:31:18.509Z,6.90
2023-02-11T16:33:45.298Z,6.47
2023-02-11T16:36:13.775Z,6.18
2023-02-11T16:38:40.591Z,5.95
2023-02-11T16:41:07.154Z,6.25
2023-02-11T16:43:33.733Z,5.88
2023-02-11T16:46:00.191Z,6.20
2023-02-11T16:48:26.749Z,6.25
2023-02-11T16:50:53.735Z,6.03
2023-02-11T16:53:24.009Z,5.85
2023-02-11T16:55:51.855Z,5.85
2023-02-11T16:58:19.258Z,5.63
2023-02-11T17:00:47.160Z,6.47
2023-02-11T17:03:22.303Z,6.78
2023-02-11T17:05:55.384Z,6.43
2023-02-11T17:08:23.471Z,6.53
2023-02-11T17:10:50.394Z,7.03
2023-02-11T17:13:17.032Z,7.28
2023-02-11T17:15:43.547Z,7.32
2023-02-11T17:18:14.144Z,6.28
2023-02-11T17:20:41.614Z,6.65
2023-02-11T17:23:08.293Z,6.15
2023-02-11T17:25:37.174Z,6.88
2023-02-11T17:28:08.331Z,6.32
2023-02-11T17:30:35.113Z,6.90
2023-02-11T17:33:01.597Z,6.75
2023-02-11T17:35:28.001Z,7.15
2023-02-11T17:37:54.444Z,6.35
2023-02-11T17:40:21.083Z,7.07
2023-02-11T17:42:47.516Z,6.78
2023-02-11T17:45:14.129Z,7.65
2023-02-11T17:47:40.591Z,7.28
2023-02-11T17:50:08.016Z,7.15
2023-02-11T17:52:34.675Z,8.32
2023-02-11T17:55:01.088Z,7.70
2023-02-11T17:57:27.588Z,8.40
2023-02-11T17:59:54.016Z,7.13
2023-02-11T18:02:20.844Z,8.15
2023-02-11T18:04:47.315Z,7.43
2023-02-11T18:07:13.967Z,7.85
2023-02-11T18:09:41.499Z,7.55
2023-02-11T18:12:08.507Z,7.25
2023-02-11T18:14:35.170Z,8.35
2023-02-11T18:17:01.623Z,8.43
2023-02-11T18:19:30.505Z,8.27
2023-02-11T18:22:00.554Z,7.57
2023-02-11T18:24:27.445Z,8.45
2023-02-11T18:26:53.856Z,7.65
2023-02-11T18:29:20.343Z,8.30
2023-02-11T18:31:46.836Z,7.72
2023-02-11T18:34:14.048Z,7.85
2023-02-11T18:36:40.618Z,7.13
2023-02-11T18:39:07.129Z,7.20
2023-02-11T18:41:33.584Z,8.02
2023-02-11T18:44:04.453Z,6.57
2023-02-11T18:46:31.250Z,8.05
2023-02-11T18:48:57.738Z,7.13
2023-02-11T18:51:24.444Z,8.45
2023-02-11T18:53:51.230Z,7.72
2023-02-11T18:56:21.016Z,7.47
2023-02-11T18:58:51.971Z,8.27
2023-02-11T19:01:22.697Z,7.40
2023-02-11T19:03:49.749Z,9.07
2023-02-11T19:06:19.893Z,8.27
2023-02-11T19:08:47.136Z,7.93
2023-02-11T19:11:16.099Z,7.35
2023-02-11T19:13:42.533Z,7.60
2023-02-11T19:16:11.366Z,7.55
2023-02-11T19:18:38.713Z,7.28
2023-02-11T19:21:10.449Z,7.60
2023-02-11T19:23:37.543Z,6.72
2023-02-11T19:26:04.547Z,7.30
2023-02-11T19:28:35.313Z,7.72
2023-02-11T19:31:08.268Z,7.32
2023-02-11T19:33:34.854Z,7.03
2023-02-11T19:36:06.612Z,7.60
2023-02-11T19:38:33.977Z,6.68
2023-02-11T19:41:00.397Z,7.30
2023-02-11T19:43:26.994Z,7.25
2023-02-11T19:45:57.479Z,8.38
2023-02-11T19:48:25.060Z,7.15
2023-02-11T19:50:51.730Z,7.53
2023-02-11T19:53:18.210Z,7.22
2023-02-11T19:55:44.654Z,7.35
2023-02-11T19:58:11.121Z,7.75
2023-02-11T20:00:37.548Z,7.70
2023-02-11T20:03:03.984Z,7.45
2023-02-11T20:05:31.319Z,6.90
2023-02-11T20:07:57.733Z,7.20
2023-02-11T20:10:25.194Z,6.93
2023-02-11T20:12:51.597Z,6.90
2023-02-11T20:15:18.389Z,7.30
2023-02-11T20:17:44.806Z,7.45
2023-02-11T20:20:12.769Z,6.65
2023-02-11T20:22:39.184Z,7.78
2023-02-11T20:25:06.162Z,8.45
2023-02-11T20:27:33.303Z,8.32
2023-02-11T20:29:59.751Z,7.80
2023-02-11T20:32:27.405Z,8.32
2023-02-11T20:34:53.840Z,7.95
2023-02-11T20:37:20.248Z,8.75
2023-02-11T20:39:46.655Z,7.72
2023-02-11T20:42:14.267Z,7.80
2023-02-11T20:44:40.984Z,7.90
2023-02-11T20:47:07.402Z,8.77
2023-02-11T20:49:33.820Z,8.80
2023-02-11T20:52:00.308Z,8.85
2023-02-11T20:54:26.726Z,8.07
2023-02-11T20:56:53.938Z,9.50
2023-02-11T20:59:21.102Z,9.25
2023-02-11T21:01:53.353Z,9.50
2023-02-11T21:04:22.910Z,9.00
2023-02-11T21:06:52.320Z,8.57
2023-02-11T21:09:21.742Z,9.02
2023-02-11T21:11:51.443Z,9.50
2023-02-11T21:14:19.004Z,10.10
2023-02-11T21:16:46.379Z,9.88
2023-02-11T21:19:12.951Z,9.07
2023-02-11T21:21:40.528Z,9.93
2023-02-11T21:24:07.891Z,9.05
2023-02-11T21:26:35.499Z,9.25
2023-02-11T21:29:07.341Z,9.75
2023-02-11T21:31:35.320Z,9.73
2023-02-11T21:34:01.891Z,9.25
2023-02-11T21:36:29.528Z,9.48
2023-02-11T21:38:55.988Z,9.13
2023-02-11T21:41:22.645Z,9.48
2023-02-11T21:43:50.207Z,10.27
2023-02-11T21:46:17.911Z,9.90
2023-02-11T21:48:44.558Z,10.70
2023-02-11T21:51:16.666Z,10.48
2023-02-11T21:53:43.457Z,11.52
2023-02-11T21:56:16.258Z,10.63
2023-02-11T21:58:44.073Z,10.20
2023-02-11T22:01:13.314Z,10.57
2023-02-11T22:03:40.295Z,10.65
2023-02-11T22:06:09.269Z,10.35
2023-02-11T22:08:36.016Z,10.07
2023-02-11T22:11:04.560Z,10.90
2023-02-11T22:13:31.161Z,10.13
2023-02-11T22:15:59.562Z,10.50
2023-02-11T22:18:26.400Z,10.73
2023-02-11T22:21:04.669Z,11.98
2023-02-11T22:23:31.652Z,11.18
2023-02-11T22:25:58.565Z,11.52
2023-02-11T22:28:26.109Z,10.60
2023-02-11T22:30:54.628Z,10.90
2023-02-11T22:33:22.029Z,10.48
2023-02-11T22:35:48.489Z,10.73
2023-02-11T22:38:14.929Z,11.43
2023-02-11T22:40:43.090Z,11.15
2023-02-11T22:43:10.463Z,12.23
2023-02-11T22:45:36.922Z,12.82
2023-02-11T22:48:03.565Z,11.52
2023-02-11T22:50:30.317Z,12.85
2023-02-11T22:52:56.700Z,13.43
2023-02-11T22:55:23.103Z,12.70
2023-02-11T22:57:49.542Z,12.70
2023-02-11T23:00:17.146Z,12.35
2023-02-11T23:02:43.672Z,13.10
2023-02-11T23:05:10.165Z,13.32
2023-02-11T23:07:36.612Z,12.82
2023-02-11T23:10:03.657Z,13.38
2023-02-11T23:12:30.336Z,12.35
2023-02-11T23:14:56.762Z,12.98
2023-02-11T23:17:24.512Z,13.20
2023-02-11T23:19:51.097Z,13.93
2023-02-11T23:22:17.659Z,11.60
2023-02-11T23:24:44.240Z,12.07
2023-02-11T23:27:10.637Z,13.95
2023-02-11T23:29:37.059Z,12.55
2023-02-11T23:32:03.604Z,12.32
2023-02-11T23:34:30.018Z,12.90
2023-02-11T23:36:59.158Z,13.52
2023-02-11T23:39:25.732Z,12.35
2023-02-11T23:41:58.843Z,13.95
2023-02-11T23:44:26.704Z,12.60
2023-02-11T23:46:53.217Z,11.88
2023-02-11T23:49:20.009Z,12.75
2023-02-11T23:51:46.487Z,12.13
2023-02-11T23:54:14.832Z,11.45
2023-02-11T23:56:42.532Z,11.32
2023-02-11T23:59:09.350Z,11.23
